Time;durP1;ratioP1;P1;durP2;ratioP2;P2;SDS_P1;SDS_P2;PMS_P1;PMS_P2;Temp;Humidity;BMP_temperature;BMP_pressure;BME280_temperature;BME280_humidity;BME280_pressure;Samples;Min_cycle;Max_cycle;Signal;HPM_P1;HPM_P2
2022/10/29 00:00:37;;;;;;;99.10;5.65;;;13.20;99.90;;;;;;5071019;28;20036;-82
2022/10/29 00:03:03;;;;;;;88.13;5.43;;;13.20;99.90;;;;;;5071424;28;20067;-83
2022/10/29 00:05:29;;;;;;;112.55;6.70;;;13.20;99.90;;;;;;5038128;28;20028;-82
2022/10/29 00:07:55;;;;;;;123.82;7.55;;;13.20;99.90;;;;;;5037524;28;20102;-83
2022/10/29 00:10:20;;;;;;;65.15;5.68;;;13.10;99.90;;;;;;5054872;28;20052;-82
2022/10/29 00:12:46;;;;;;;30.13;5.45;;;13.10;99.90;;;;;;5054460;28;20040;-82
2022/10/29 00:15:12;;;;;;;38.95;6.15;;;13.10;99.90;;;;;;5054534;28;20039;-82
2022/10/29 00:17:37;;;;;;;34.38;5.95;;;13.10;99.90;;;;;;5037437;28;20103;-83
2022/10/29 00:20:04;;;;;;;35.90;5.40;;;13.40;99.90;;;;;;5054427;28;20048;-83
2022/10/29 00:22:29;;;;;;;101.22;7.95;;;13.10;99.90;;;;;;5054304;28;20279;-83
2022/10/29 00:24:55;;;;;;;97.03;7.13;;;13.10;99.90;;;;;;5036360;28;20382;-82
2022/10/29 00:27:21;;;;;;;80.10;7.13;;;13.10;99.90;;;;;;5038317;28;20397;-82
2022/10/29 00:29:46;;;;;;;52.93;5.67;;;13.00;99.90;;;;;;5037148;28;20438;-83
2022/10/29 00:32:12;;;;;;;60.97;6.43;;;13.10;99.90;;;;;;5037616;28;20337;-82
2022/10/29 00:34:37;;;;;;;60.80;6.20;;;13.00;99.90;;;;;;5036897;28;20275;-82
2022/10/29 00:37:04;;;;;;;38.35;6.35;;;12.90;99.90;;;;;;5037822;28;20539;-82
2022/10/29 00:39:32;;;;;;;89.32;7.25;;;12.90;99.90;;;;;;5053688;28;20044;-82
2022/10/29 00:41:58;;;;;;;108.15;8.05;;;12.90;99.90;;;;;;5038036;28;20052;-82
2022/10/29 00:44:30;;;;;;;100.95;7.72;;;12.90;99.90;;;;;;5036941;28;20044;-82
2022/10/29 00:47:01;;;;;;;165.80;10.38;;;12.90;99.90;;;;;;5053531;28;20039;-82
2022/10/29 00:49:27;;;;;;;85.38;7.25;;;12.80;99.90;;;;;;5070386;28;20089;-82
2022/10/29 00:51:54;;;;;;;77.03;6.85;;;12.80;99.90;;;;;;5036929;28;20041;-82
2022/10/29 00:54:19;;;;;;;;;;;12.80;99.90;;;;;;5054286;28;20115;-82
2022/10/29 00:56:52;;;;;;;96.45;8.02;;;12.80;99.90;;;;;;5036720;28;19958;-83
2022/10/29 00:59:18;;;;;;;105.57;8.85;;;12.80;99.90;;;;;;5068618;28;20553;-82
2022/10/29 01:01:47;;;;;;;86.65;6.90;;;12.80;99.90;;;;;;5017989;28;20040;-82
2022/10/29 01:04:13;;;;;;;76.70;7.32;;;12.80;99.90;;;;;;5053497;28;20033;-82
2022/10/29 01:06:41;;;;;;;74.10;7.38;;;12.90;99.90;;;;;;5036612;28;20036;-82
2022/10/29 01:09:06;;;;;;;77.32;7.68;;;12.70;99.90;;;;;;5053399;28;20166;-82
2022/10/29 01:11:59;;;;;;;84.47;6.72;;;12.70;99.90;;;;;;5053463;28;20033;-82
2022/10/29 01:14:46;;;;;;;109.55;8.15;;;12.80;99.90;;;;;;5052843;28;20120;-82
2022/10/29 01:17:20;;;;;;;176.67;10.17;;;12.80;99.90;;;;;;5050713;28;20484;-82
2022/10/29 01:20:18;;;;;;;128.30;8.50;;;12.80;99.90;;;;;;5069083;28;20136;-82
2022/10/29 01:23:15;;;;;;;197.00;10.63;;;12.80;99.90;;;;;;5051794;28;20036;-82
2022/10/29 01:26:10;;;;;;;137.00;9.45;;;12.80;99.90;;;;;;5068157;28;20047;-82
2022/10/29 01:29:06;;;;;;;120.60;8.93;;;12.80;99.90;;;;;;5068287;28;20506;-82
2022/10/29 01:31:53;;;;;;;207.90;11.50;;;12.90;99.90;;;;;;5051069;28;20511;-82
2022/10/29 01:34:52;;;;;;;109.20;7.60;;;12.90;99.90;;;;;;5069877;28;20036;-82
2022/10/29 01:37:55;;;;;;;58.78;6.45;;;12.80;99.90;;;;;;5042580;28;20055;-82
2022/10/29 01:40:32;;;;;;;88.80;7.95;;;12.90;99.90;;;;;;5049123;28;20041;-82
2022/10/29 01:43:10;;;;;;;;;;;12.90;99.90;;;;;;5052356;28;20044;-82
2022/10/29 01:45:44;;;;;;;74.70;7.57;;;12.80;99.90;;;;;;5070158;28;20395;-82
2022/10/29 01:48:16;;;;;;;94.88;8.38;;;12.80;99.90;;;;;;5057140;28;20086;-82
2022/10/29 01:50:46;;;;;;;119.65;8.82;;;12.90;99.90;;;;;;5056714;28;20028;-82
2022/10/29 01:53:12;;;;;;;75.63;7.88;;;12.90;99.90;;;;;;5057186;28;20034;-82
2022/10/29 01:55:38;;;;;;;121.53;9.93;;;12.90;99.90;;;;;;5056684;28;20075;-82
2022/10/29 01:58:05;;;;;;;67.20;6.33;;;12.90;99.90;;;;;;5041123;28;20060;-82
2022/10/29 02:01:03;;;;;;;79.88;7.80;;;12.80;99.90;;;;;;5056726;28;20289;-82
2022/10/29 02:04:00;;;;;;;90.05;7.43;;;12.80;99.90;;;;;;5055921;28;20101;-82
2022/10/29 02:06:34;;;;;;;101.70;8.10;;;12.90;99.90;;;;;;5056302;28;20051;-82
2022/10/29 02:09:08;;;;;;;122.22;9.32;;;12.90;99.90;;;;;;5072536;28;20084;-82
2022/10/29 02:11:49;;;;;;;127.47;9.30;;;12.90;99.90;;;;;;5073261;28;20063;-82
2022/10/29 02:14:57;;;;;;;111.80;10.45;;;12.90;99.90;;;;;;5073810;28;20473;-82
2022/10/29 02:17:23;;;;;;;75.93;7.33;;;12.90;99.90;;;;;;5071347;28;20045;-82
2022/10/29 02:19:49;;;;;;;;;;;12.90;99.90;;;;;;5073646;28;20814;-83
2022/10/29 02:22:15;;;;;;;72.03;8.15;;;12.80;99.90;;;;;;5056631;28;19955;-82
2022/10/29 02:24:40;;;;;;;63.07;7.40;;;12.90;99.90;;;;;;5023259;28;20071;-82
2022/10/29 02:27:07;;;;;;;63.77;7.60;;;12.90;99.90;;;;;;5023401;28;20303;-83
2022/10/29 02:29:32;;;;;;;91.00;8.45;;;12.90;99.90;;;;;;5022636;28;20306;-84
2022/10/29 02:31:58;;;;;;;61.42;6.72;;;12.90;99.90;;;;;;5039624;28;20075;-82
2022/10/29 02:34:24;;;;;;;91.63;8.40;;;12.90;99.90;;;;;;5021747;28;20037;-82
2022/10/29 02:36:49;;;;;;;55.92;6.75;;;12.90;99.90;;;;;;5072919;28;20127;-82
2022/10/29 02:39:15;;;;;;;63.38;6.35;;;12.90;99.90;;;;;;5040195;28;20170;-82
2022/10/29 02:41:41;;;;;;;66.20;7.22;;;12.90;99.90;;;;;;5040028;28;20048;-82
2022/10/29 02:44:06;;;;;;;90.80;7.40;;;12.80;99.90;;;;;;5040382;28;20041;-82
2022/10/29 02:46:34;;;;;;;76.35;7.25;;;12.80;99.90;;;;;;5023466;28;20108;-82
2022/10/29 02:49:01;;;;;;;86.85;7.70;;;12.90;99.90;;;;;;5021529;28;20115;-82
2022/10/29 02:51:27;;;;;;;;;;;12.90;99.90;;;;;;5038799;28;20079;-82
2022/10/29 02:53:52;;;;;;;55.80;6.38;;;12.90;99.90;;;;;;5039603;28;19948;-82
2022/10/29 02:56:18;;;;;;;227.38;12.68;;;12.90;99.90;;;;;;5039623;28;20036;-81
2022/10/29 02:58:44;;;;;;;133.00;9.70;;;12.90;99.90;;;;;;5056016;28;20030;-82
2022/10/29 03:01:09;;;;;;;214.18;13.88;;;12.80;99.90;;;;;;5056878;28;20036;-90
2022/10/29 03:03:35;;;;;;;138.77;9.32;;;12.80;99.90;;;;;;5023750;28;20484;-89
2022/10/29 03:06:01;;;;;;;129.95;9.93;;;12.80;99.90;;;;;;5039983;28;20515;-89
2022/10/29 03:08:26;;;;;;;134.35;9.65;;;12.80;99.90;;;;;;5039493;28;20102;-90
2022/10/29 03:10:54;;;;;;;142.10;9.40;;;12.90;99.90;;;;;;5039762;28;20083;-90
2022/10/29 03:13:19;;;;;;;130.20;8.88;;;12.90;99.90;;;;;;5056646;28;20495;-89
2022/10/29 03:15:45;;;;;;;108.90;8.50;;;12.80;99.90;;;;;;5053651;28;20040;-89
2022/10/29 03:18:11;;;;;;;120.00;9.18;;;12.80;99.90;;;;;;5023091;28;20036;-89
2022/10/29 03:20:37;;;;;;;140.48;9.88;;;12.80;99.90;;;;;;5039111;28;20041;-89
2022/10/29 03:23:02;;;;;;;127.65;8.30;;;13.10;99.90;;;;;;5056593;28;20040;-90
2022/10/29 03:25:28;;;;;;;110.60;8.00;;;12.80;99.90;;;;;;5039905;28;20040;-90
2022/10/29 03:27:54;;;;;;;224.57;12.32;;;12.70;99.90;;;;;;5056549;28;20121;-90
2022/10/29 03:30:19;;;;;;;146.82;9.05;;;12.70;99.90;;;;;;5039424;28;20503;-89
2022/10/29 03:32:46;;;;;;;192.15;10.90;;;12.70;99.90;;;;;;5072006;28;20047;-89
2022/10/29 03:35:14;;;;;;;119.75;7.93;;;12.70;99.90;;;;;;5056473;28;20028;-90
2022/10/29 03:37:40;;;;;;;118.43;8.07;;;12.70;99.90;;;;;;5056211;28;20438;-90
2022/10/29 03:40:07;;;;;;;114.25;7.78;;;12.70;99.90;;;;;;5055448;28;20040;-90
2022/10/29 03:42:32;;;;;;;;;;;12.60;99.90;;;;;;5022251;28;20036;-90
2022/10/29 03:44:59;;;;;;;106.80;9.05;;;12.60;99.90;;;;;;5055435;28;19931;-90
2022/10/29 03:47:26;;;;;;;101.93;7.47;;;12.60;99.90;;;;;;5072809;28;20064;-90
2022/10/29 03:49:53;;;;;;;47.47;5.63;;;12.60;99.90;;;;;;5056310;28;20036;-90
2022/10/29 03:52:18;;;;;;;63.25;6.25;;;12.60;99.90;;;;;;5040027;28;20040;-90
2022/10/29 03:54:44;;;;;;;57.15;5.60;;;12.60;99.90;;;;;;5056011;28;20040;-90
2022/10/29 03:57:10;;;;;;;47.85;6.35;;;12.50;99.90;;;;;;5055597;28;20102;-90
2022/10/29 03:59:36;;;;;;;86.55;8.38;;;12.60;99.90;;;;;;5039410;28;20397;-90
2022/10/29 04:02:01;;;;;;;91.65;8.73;;;12.60;99.90;;;;;;5039549;28;20055;-90
2022/10/29 04:04:27;;;;;;;63.30;6.78;;;12.60;99.90;;;;;;5056020;28;20524;-89
2022/10/29 04:06:55;;;;;;;138.07;10.82;;;12.60;99.90;;;;;;5038842;28;20036;-90
2022/10/29 04:09:21;;;;;;;114.10;9.70;;;12.60;99.90;;;;;;5071258;28;20072;-90
2022/10/29 04:11:47;;;;;;;106.22;8.65;;;12.60;99.90;;;;;;5021852;28;20098;-90
2022/10/29 04:14:12;;;;;;;77.97;7.97;;;12.60;99.90;;;;;;5038855;28;20052;-90
2022/10/29 04:16:38;;;;;;;63.97;8.93;;;12.60;99.90;;;;;;5055659;28;20037;-90
2022/10/29 04:19:04;;;;;;;95.17;7.13;;;12.60;99.90;;;;;;5038615;28;20050;-90
2022/10/29 04:21:29;;;;;;;59.00;7.00;;;12.60;99.90;;;;;;5038605;28;20286;-90
2022/10/29 04:23:55;;;;;;;58.13;6.37;;;13.00;99.90;;;;;;5039638;28;20793;-90
2022/10/29 04:26:21;;;;;;;56.78;7.18;;;12.60;99.90;;;;;;5039230;28;20079;-89
2022/10/29 04:28:50;;;;;;;27.10;6.18;;;12.60;99.90;;;;;;5023087;28;20033;-90
2022/10/29 04:31:16;;;;;;;69.70;8.57;;;12.60;99.90;;;;;;5055899;28;20055;-89
2022/10/29 04:33:42;;;;;;;98.68;9.48;;;12.60;99.90;;;;;;5038791;28;20039;-89
2022/10/29 04:36:08;;;;;;;48.60;6.40;;;12.60;99.90;;;;;;5038720;28;20044;-89
2022/10/29 04:38:34;;;;;;;41.70;7.53;;;12.60;99.90;;;;;;5071718;28;20060;-90
2022/10/29 04:41:00;;;;;;;36.75;6.07;;;12.60;99.90;;;;;;5039138;28;20502;-89
2022/10/29 04:43:27;;;;;;;85.85;8.88;;;12.60;99.90;;;;;;5038390;28;20056;-89
2022/10/29 04:45:55;;;;;;;62.15;7.63;;;12.60;99.90;;;;;;5055572;28;20033;-90
2022/10/29 04:48:22;;;;;;;124.03;11.07;;;12.50;99.90;;;;;;5054907;28;20047;-89
2022/10/29 04:50:48;;;;;;;152.80;12.45;;;12.60;99.90;;;;;;5056030;28;20446;-90
2022/10/29 04:53:14;;;;;;;68.60;8.60;;;12.50;99.90;;;;;;5055616;28;20036;-89
2022/10/29 04:55:40;;;;;;;56.42;8.40;;;12.60;99.90;;;;;;5038336;28;20122;-89
2022/10/29 04:58:07;;;;;;;107.82;10.80;;;12.60;99.90;;;;;;5037616;28;20438;-90
2022/10/29 05:00:33;;;;;;;114.53;11.60;;;12.60;99.90;;;;;;5054697;28;20477;-90
2022/10/29 05:02:59;;;;;;;59.63;7.75;;;12.60;99.90;;;;;;5054551;28;20126;-90
2022/10/29 05:05:24;;;;;;;156.25;12.02;;;12.60;99.90;;;;;;5054955;28;20090;-89
2022/10/29 05:08:01;;;;;;;78.63;9.40;;;12.60;99.90;;;;;;5037622;28;20051;-90
2022/10/29 05:10:29;;;;;;;130.75;13.27;;;12.60;99.90;;;;;;5071256;28;20061;-90
2022/10/29 05:13:11;;;;;;;99.68;10.82;;;12.60;99.90;;;;;;5035466;28;20081;-90
2022/10/29 05:15:37;;;;;;;67.38;9.02;;;12.60;99.90;;;;;;5068697;28;20090;-89
2022/10/29 05:18:03;;;;;;;114.93;12.27;;;12.60;99.90;;;;;;5053917;28;20680;-90
2022/10/29 05:20:30;;;;;;;106.35;12.00;;;12.50;99.90;;;;;;5036970;28;20396;-90
2022/10/29 05:23:03;;;;;;;94.88;11.00;;;12.60;99.90;;;;;;5053670;28;20043;-90
2022/10/29 05:25:31;;;;;;;54.40;11.57;;;12.60;99.90;;;;;;5068441;28;20040;-89
2022/10/29 05:28:00;;;;;;;162.90;15.23;;;12.60;99.90;;;;;;5053889;28;20040;-90
2022/10/29 05:30:25;;;;;;;46.50;8.20;;;12.60;99.90;;;;;;5053763;28;20507;-89
2022/10/29 05:32:51;;;;;;;67.90;8.73;;;12.60;99.90;;;;;;5036657;28;20048;-90
2022/10/29 05:35:17;;;;;;;32.58;6.97;;;12.60;99.90;;;;;;5020660;28;20037;-89
2022/10/29 05:37:42;;;;;;;41.50;7.77;;;12.60;99.90;;;;;;5020482;28;20043;-90
2022/10/29 05:40:09;;;;;;;37.70;8.40;;;12.60;99.90;;;;;;5020587;28;20366;-90
2022/10/29 05:42:36;;;;;;;;;;;12.60;99.90;;;;;;5054016;28;20782;-89
2022/10/29 05:45:02;;;;;;;35.53;6.65;;;12.60;99.90;;;;;;5053606;28;20364;-89
2022/10/29 05:47:28;;;;;;;38.63;7.55;;;12.60;99.90;;;;;;5053087;28;20041;-89
2022/10/29 05:49:53;;;;;;;39.95;8.50;;;12.60;99.90;;;;;;5069999;28;20029;-89
2022/10/29 05:52:21;;;;;;;31.75;7.03;;;12.60;99.90;;;;;;5036969;28;20036;-90
2022/10/29 05:54:47;;;;;;;50.67;7.63;;;12.60;99.90;;;;;;5037122;28;20252;-90
2022/10/29 05:57:13;;;;;;;52.00;7.87;;;12.60;99.90;;;;;;5020156;28;20571;-89
2022/10/29 05:59:38;;;;;;;42.23;7.73;;;12.60;99.90;;;;;;5053123;28;20813;-90
2022/10/29 06:02:04;;;;;;;39.90;8.33;;;12.60;99.90;;;;;;5052986;28;20359;-89
2022/10/29 06:04:30;;;;;;;43.67;7.65;;;12.60;99.90;;;;;;5020143;28;20032;-90
2022/10/29 06:06:55;;;;;;;40.92;7.50;;;12.60;99.90;;;;;;5036287;28;20044;-89
2022/10/29 06:09:21;;;;;;;48.40;8.35;;;12.60;99.90;;;;;;5054104;28;20174;-89
2022/10/29 06:11:47;;;;;;;80.35;7.80;;;12.60;99.90;;;;;;5035236;28;20041;-90
2022/10/29 06:14:12;;;;;;;42.55;7.00;;;12.60;99.90;;;;;;5019190;28;20033;-89
2022/10/29 06:16:39;;;;;;;56.15;7.28;;;12.30;99.90;;;;;;5053048;28;20137;-88
2022/10/29 06:19:05;;;;;;;69.32;9.38;;;12.60;99.90;;;;;;5053209;28;20047;-90
2022/10/29 06:21:31;;;;;;;38.78;6.55;;;12.60;99.90;;;;;;5018092;28;20040;-89
2022/10/29 06:23:56;;;;;;;60.10;7.68;;;12.60;99.90;;;;;;5053278;28;20041;-89
2022/10/29 06:26:22;;;;;;;58.70;7.13;;;12.60;99.90;;;;;;5020631;28;20115;-89
2022/10/29 06:28:48;;;;;;;68.47;7.10;;;12.60;99.90;;;;;;5036943;28;20801;-90
2022/10/29 06:31:13;;;;;;;69.20;7.65;;;12.60;99.90;;;;;;5036889;28;20036;-90
2022/10/29 06:33:39;;;;;;;61.97;7.10;;;12.60;99.90;;;;;;5040118;28;20068;-83
2022/10/29 06:36:05;;;;;;;73.63;7.40;;;12.60;99.90;;;;;;5056890;28;20283;-88
2022/10/29 06:38:30;;;;;;;46.08;5.95;;;12.60;99.90;;;;;;5042487;28;20036;-90
2022/10/29 06:40:56;;;;;;;65.65;7.18;;;12.70;99.90;;;;;;5042999;28;20052;-88
2022/10/29 06:43:22;;;;;;;81.43;8.10;;;12.70;99.90;;;;;;5059487;28;20037;-89
2022/10/29 06:45:48;;;;;;;53.08;5.82;;;12.70;99.90;;;;;;5057917;28;20087;-87
2022/10/29 06:48:15;;;;;;;52.00;5.50;;;12.70;99.90;;;;;;5073388;28;20037;-86
2022/10/29 06:50:40;;;;;;;66.28;7.88;;;12.80;99.90;;;;;;5072725;28;20044;-84
2022/10/29 06:53:10;;;;;;;56.80;6.32;;;12.80;99.90;;;;;;5057168;28;20120;-83
2022/10/29 06:55:35;;;;;;;58.03;7.63;;;12.80;99.90;;;;;;5075446;28;20045;-84
2022/10/29 06:58:13;;;;;;;49.97;6.60;;;12.80;99.90;;;;;;5075504;28;20198;-84
2022/10/29 07:00:40;;;;;;;29.77;6.22;;;12.80;99.90;;;;;;5074161;28;20645;-85
2022/10/29 07:03:07;;;;;;;56.33;7.30;;;12.90;99.90;;;;;;5055076;28;20435;-84
2022/10/29 07:05:35;;;;;;;41.38;6.53;;;12.90;99.90;;;;;;5072456;28;20028;-84
2022/10/29 07:08:01;;;;;;;49.70;6.75;;;12.90;99.90;;;;;;5073277;28;20132;-85
2022/10/29 07:10:31;;;;;;;65.00;7.78;;;12.90;99.90;;;;;;5074721;28;20041;-85
2022/10/29 07:12:57;;;;;;;34.30;6.30;;;13.00;99.90;;;;;;5076917;28;20040;-85
2022/10/29 07:15:23;;;;;;;66.30;7.40;;;13.00;99.90;;;;;;5078464;28;20040;-85
2022/10/29 07:18:04;;;;;;;33.13;6.22;;;13.00;99.90;;;;;;5060950;28;20044;-87
2022/10/29 07:20:32;;;;;;;36.67;7.47;;;13.10;99.90;;;;;;5061173;28;20037;-86
2022/10/29 07:23:00;;;;;;;54.53;8.68;;;13.10;99.90;;;;;;5076805;28;20062;-85
2022/10/29 07:25:28;;;;;;;42.47;8.35;;;13.10;99.90;;;;;;5040840;28;20478;-86
2022/10/29 07:27:54;;;;;;;81.05;10.38;;;13.20;99.90;;;;;;5057261;28;20037;-80
2022/10/29 07:30:21;;;;;;;56.47;9.32;;;13.20;99.90;;;;;;5071294;28;20043;-82
2022/10/29 07:32:46;;;;;;;;;;;13.20;99.90;;;;;;5055155;28;20043;-80
2022/10/29 07:35:12;;;;;;;43.40;7.45;;;13.20;99.90;;;;;;5054640;28;20295;-79
2022/10/29 07:37:38;;;;;;;52.55;8.13;;;13.20;99.90;;;;;;5054858;28;20358;-79
2022/10/29 07:40:04;;;;;;;41.20;7.90;;;13.20;99.90;;;;;;5037742;28;20033;-78
2022/10/29 07:42:30;;;;;;;52.05;9.23;;;13.20;99.90;;;;;;5054826;28;20051;-79
2022/10/29 07:44:56;;;;;;;48.28;8.45;;;13.20;99.90;;;;;;5070141;28;20052;-79
2022/10/29 07:47:21;;;;;;;86.22;11.50;;;13.30;99.90;;;;;;5037596;28;20386;-79
2022/10/29 07:49:47;;;;;;;47.03;8.43;;;13.30;99.90;;;;;;5071195;28;20044;-80
2022/10/29 07:52:13;;;;;;;66.88;9.63;;;13.30;99.90;;;;;;5020352;28;20809;-79
2022/10/29 07:54:38;;;;;;;29.63;8.38;;;13.40;99.90;;;;;;5054294;28;20062;-80
2022/10/29 07:57:04;;;;;;;50.30;9.13;;;13.40;99.90;;;;;;5037625;28;20070;-79
2022/10/29 07:59:30;;;;;;;38.85;9.50;;;13.40;99.90;;;;;;5054604;28;20484;-80
2022/10/29 08:01:55;;;;;;;45.90;9.20;;;13.50;99.90;;;;;;5070670;28;20081;-80
2022/10/29 08:04:21;;;;;;;39.50;9.20;;;13.50;99.90;;;;;;5054115;28;20048;-79
2022/10/29 08:06:47;;;;;;;45.65;10.57;;;13.50;99.90;;;;;;5070606;28;20049;-80
2022/10/29 08:09:13;;;;;;;48.67;10.57;;;13.60;99.90;;;;;;5070212;28;20064;-79
2022/10/29 08:11:39;;;;;;;47.13;11.02;;;13.50;99.90;;;;;;5054110;28;20044;-80
2022/10/29 08:14:05;;;;;;;47.47;11.45;;;13.60;99.90;;;;;;5035548;28;20037;-78
2022/10/29 08:16:30;;;;;;;46.80;11.93;;;13.60;99.90;;;;;;5036474;28;20028;-78
2022/10/29 08:18:56;;;;;;;55.13;13.80;;;13.60;99.90;;;;;;5054235;28;20052;-78
2022/10/29 08:21:22;;;;;;;46.13;14.15;;;13.60;99.90;;;;;;5070351;28;20287;-78
2022/10/29 08:23:48;;;;;;;48.67;14.38;;;13.60;99.90;;;;;;5053657;28;20040;-78
2022/10/29 08:26:14;;;;;;;51.35;14.77;;;13.60;99.90;;;;;;5053317;28;20047;-79
2022/10/29 08:28:41;;;;;;;50.72;14.30;;;13.70;99.90;;;;;;5070629;28;20028;-78
2022/10/29 08:31:07;;;;;;;53.78;15.13;;;13.70;99.90;;;;;;5069900;28;20045;-78
2022/10/29 08:33:33;;;;;;;54.42;17.27;;;13.80;99.90;;;;;;5053858;28;20036;-78
2022/10/29 08:35:59;;;;;;;50.30;16.63;;;14.00;99.90;;;;;;5053286;28;20097;-78
2022/10/29 08:38:24;;;;;;;55.35;17.10;;;13.90;99.90;;;;;;5053142;28;20044;-78
2022/10/29 08:41:18;;;;;;;45.28;16.45;;;13.90;99.90;;;;;;5036810;28;20039;-79
2022/10/29 08:43:46;;;;;;;55.53;16.33;;;14.00;99.90;;;;;;5051121;28;20140;-78
2022/10/29 08:46:40;;;;;;;56.67;18.63;;;14.00;99.90;;;;;;5053415;28;20072;-78
2022/10/29 08:49:23;;;;;;;54.08;17.88;;;14.00;99.90;;;;;;5053116;28;20037;-77
2022/10/29 08:52:03;;;;;;;57.85;18.27;;;14.10;99.90;;;;;;5068360;28;20032;-78
2022/10/29 08:54:33;;;;;;;45.47;16.92;;;14.10;99.90;;;;;;5068255;28;20426;-79
2022/10/29 08:57:06;;;;;;;52.63;17.92;;;14.10;99.90;;;;;;5053280;28;20036;-79
2022/10/29 08:59:39;;;;;;;55.42;17.67;;;14.10;99.90;;;;;;5051681;28;20044;-79
2022/10/29 09:02:16;;;;;;;53.38;18.50;;;14.10;99.90;;;;;;5070497;28;20400;-79
2022/10/29 09:04:42;;;;;;;48.30;18.60;;;14.20;99.90;;;;;;5053662;28;20480;-79
2022/10/29 09:07:45;;;;;;;52.42;17.13;;;14.20;99.90;;;;;;5035912;28;20079;-79
2022/10/29 09:10:25;;;;;;;56.50;19.05;;;14.20;99.90;;;;;;5069661;28;20056;-80
2022/10/29 09:13:03;;;;;;;51.95;17.90;;;14.20;99.90;;;;;;5053619;28;20123;-80
2022/10/29 09:15:48;;;;;;;52.17;19.40;;;14.20;99.90;;;;;;5069677;28;20185;-80
2022/10/29 09:18:16;;;;;;;54.10;19.40;;;14.20;99.90;;;;;;5069632;28;20072;-80
2022/10/29 09:20:54;;;;;;;49.40;18.73;;;14.20;99.90;;;;;;5053580;28;20040;-80
2022/10/29 09:23:41;;;;;;;45.45;17.25;;;14.20;99.90;;;;;;5068910;28;20040;-80
2022/10/29 09:26:24;;;;;;;51.33;18.52;;;14.30;99.90;;;;;;5051124;28;20076;-80
2022/10/29 09:29:08;;;;;;;43.88;17.77;;;14.40;99.90;;;;;;5053194;28;20438;-80
2022/10/29 09:31:41;;;;;;;42.22;18.38;;;14.40;99.90;;;;;;5068741;28;20028;-80
2022/10/29 09:34:30;;;;;;;36.20;16.08;;;14.50;99.90;;;;;;5051233;28;20043;-80
2022/10/29 09:36:58;;;;;;;32.95;15.00;;;14.60;99.90;;;;;;5069836;28;20040;-80
2022/10/29 09:39:36;;;;;;;40.38;16.95;;;14.60;99.90;;;;;;5036257;28;20040;-80
2022/10/29 09:42:07;;;;;;;35.70;14.95;;;14.70;99.90;;;;;;5070085;28;20526;-79
2022/10/29 09:44:47;;;;;;;39.45;15.45;;;14.70;99.90;;;;;;5051078;28;20043;-79
2022/10/29 09:47:31;;;;;;;37.75;15.20;;;14.70;99.90;;;;;;5052485;28;20040;-79
2022/10/29 09:50:20;;;;;;;35.53;15.57;;;14.70;99.90;;;;;;5051588;28;20044;-79
2022/10/29 09:52:48;;;;;;;30.10;14.05;;;14.70;99.90;;;;;;5067408;28;20482;-79
2022/10/29 09:55:42;;;;;;;38.40;15.23;;;14.70;99.90;;;;;;5069310;28;20110;-79
2022/10/29 09:58:18;;;;;;;32.00;14.80;;;14.70;99.90;;;;;;5050943;28;20131;-77
2022/10/29 10:00:44;;;;;;;36.13;14.70;;;14.70;99.90;;;;;;5053037;28;20037;-77
2022/10/29 10:03:12;;;;;;;29.42;14.70;;;14.70;99.90;;;;;;5036593;28;20043;-78
2022/10/29 10:06:04;;;;;;;31.08;13.55;;;14.70;99.90;;;;;;5069681;28;20504;-77
2022/10/29 10:08:31;;;;;;;33.95;14.38;;;14.80;99.90;;;;;;5070142;28;20084;-78
2022/10/29 10:11:01;;;;;;;31.50;14.00;;;14.90;99.90;;;;;;5056651;28;20147;-77
2022/10/29 10:13:30;;;;;;;34.13;15.15;;;15.00;99.90;;;;;;5056384;28;20464;-78
2022/10/29 10:15:59;;;;;;;33.05;14.57;;;15.20;99.90;;;;;;5073112;28;20042;-78
2022/10/29 10:18:31;;;;;;;32.65;14.57;;;15.40;99.90;;;;;;5056336;28;20504;-79
2022/10/29 10:21:05;;;;;;;26.25;13.10;;;15.50;99.90;;;;;;5072890;28;20071;-79
2022/10/29 10:23:47;;;;;;;27.63;12.80;;;15.60;99.90;;;;;;5072659;28;20116;-79
2022/10/29 10:26:25;;;;;;;26.55;11.75;;;15.70;99.90;;;;;;5056107;28;20070;-79
2022/10/29 10:29:11;;;;;;;27.50;12.70;;;15.80;99.90;;;;;;5056707;28;20485;-79
2022/10/29 10:31:44;;;;;;;23.45;11.90;;;16.10;99.90;;;;;;5056427;28;20154;-79
2022/10/29 10:34:18;;;;;;;23.75;12.23;;;16.50;99.90;;;;;;5072837;28;20089;-79
2022/10/29 10:37:02;;;;;;;20.85;11.73;;;16.70;99.90;;;;;;5073114;28;20032;-79
2022/10/29 10:39:40;;;;;;;22.30;12.27;;;16.80;99.90;;;;;;5055899;28;20041;-79
2022/10/29 10:42:27;;;;;;;21.38;11.70;;;16.90;99.90;;;;;;5073274;28;20326;-79
2022/10/29 10:44:59;;;;;;;23.95;12.57;;;17.00;99.90;;;;;;5072302;28;20045;-80
2022/10/29 10:47:28;;;;;;;25.63;12.23;;;16.90;99.90;;;;;;5055616;28;20115;-79
2022/10/29 10:50:28;;;;;;;25.83;12.32;;;16.90;99.90;;;;;;5055625;28;20040;-79
2022/10/29 10:53:01;;;;;;;20.27;10.98;;;17.00;99.90;;;;;;5071571;28;20056;-78
2022/10/29 10:55:33;;;;;;;19.17;10.43;;;17.00;99.90;;;;;;5072253;28;20103;-78
2022/10/29 10:58:43;;;;;;;22.05;10.57;;;17.00;99.90;;;;;;5053940;28;20120;-79
2022/10/29 11:01:18;;;;;;;23.02;10.32;;;16.90;99.90;;;;;;5055344;28;20054;-78
2022/10/29 11:03:53;;;;;;;19.45;9.70;;;17.00;99.90;;;;;;5057284;28;20041;-92
2022/10/29 11:06:30;;;;;;;20.00;9.60;;;17.20;99.90;;;;;;5057835;28;20097;-90
2022/10/29 11:09:11;;;;;;;20.45;9.23;;;17.30;99.90;;;;;;5073568;28;22203;-96
2022/10/29 11:11:59;;;;;;;21.65;9.68;;;17.40;99.90;;;;;;5057718;28;20029;-92
2022/10/29 11:14:48;;;;;;;18.38;9.07;;;17.40;99.90;;;;;;5066861;28;20036;-89
2022/10/29 11:17:35;;;;;;;20.05;8.93;;;17.50;99.90;;;;;;5068935;28;20032;-85
2022/10/29 11:20:07;;;;;;;17.77;7.85;;;17.60;99.90;;;;;;5070994;28;20075;-84
2022/10/29 11:23:07;;;;;;;17.08;8.40;;;17.90;99.90;;;;;;5071130;28;20496;-83
2022/10/29 11:25:44;;;;;;;19.00;8.55;;;18.20;99.90;;;;;;5071103;28;20043;-84
2022/10/29 11:28:32;;;;;;;15.32;8.13;;;18.30;99.90;;;;;;5071969;28;20068;-87
2022/10/29 11:31:11;;;;;;;21.10;8.55;;;18.60;99.90;;;;;;5072673;28;20082;-86
2022/10/29 11:34:09;;;;;;;16.17;7.25;;;18.60;99.90;;;;;;5054391;28;20059;-85
2022/10/29 11:36:42;;;;;;;17.98;7.63;;;18.80;99.90;;;;;;5065415;28;20044;-88
2022/10/29 11:39:14;;;;;;;18.40;7.57;;;18.90;99.90;;;;;;5056323;28;20036;-88
2022/10/29 11:42:00;;;;;;;15.35;7.13;;;19.30;99.90;;;;;;5043091;28;20206;-89
2022/10/29 11:44:28;;;;;;;13.48;7.22;;;19.70;99.90;;;;;;5057599;28;20040;-89
2022/10/29 11:47:11;;;;;;;15.68;7.55;;;20.00;99.90;;;;;;5021370;28;20385;-90
2022/10/29 11:50:07;;;;;;;17.70;7.35;;;19.90;99.90;;;;;;5072781;28;20500;-90
2022/10/29 11:52:36;;;;;;;15.93;7.65;;;19.70;99.90;;;;;;5057430;28;20037;-90
2022/10/29 11:55:32;;;;;;;17.00;7.50;;;19.50;99.90;;;;;;5074251;28;20123;-90
2022/10/29 11:58:03;;;;;;;21.50;8.18;;;19.50;99.90;;;;;;5063476;28;20377;-90
2022/10/29 12:00:44;;;;;;;14.52;8.52;;;19.50;99.90;;;;;;5057647;28;20036;-91
2022/10/29 12:03:15;;;;;;;16.58;8.13;;;19.40;99.90;;;;;;5057386;28;20132;-90
2022/10/29 12:05:52;;;;;;;13.73;7.50;;;19.30;99.90;;;;;;5073515;28;20044;-90
2022/10/29 12:08:53;;;;;;;15.73;7.30;;;19.20;99.90;;;;;;5073903;28;20453;-90
2022/10/29 12:11:52;;;;;;;15.88;7.28;;;19.10;99.90;;;;;;5038899;28;20489;-89
2022/10/29 12:14:35;;;;;;;19.17;7.50;;;19.00;99.90;;;;;;5074292;28;20044;-90
2022/10/29 12:17:24;;;;;;;15.45;6.80;;;19.00;99.90;;;;;;5073280;28;20052;-90
2022/10/29 12:19:55;;;;;;;21.33;8.32;;;18.90;99.90;;;;;;5056655;28;20105;-90
2022/10/29 12:22:21;;;;;;;15.43;7.03;;;18.70;99.90;;;;;;5074076;28;20048;-90
2022/10/29 12:25:09;;;;;;;13.27;6.78;;;18.70;99.90;;;;;;5057113;28;20353;-90
2022/10/29 12:27:45;;;;;;;14.15;7.00;;;18.70;99.90;;;;;;5055916;28;20036;-88
2022/10/29 12:30:15;;;;;;;17.45;6.63;;;18.90;99.90;;;;;;5051430;28;20462;-87
2022/10/29 12:33:06;;;;;;;19.35;7.03;;;19.00;99.90;;;;;;5052677;28;20033;-87
2022/10/29 12:36:00;;;;;;;14.55;6.20;;;19.00;99.90;;;;;;5047656;28;20036;-87
2022/10/29 12:38:36;;;;;;;17.92;6.10;;;19.10;99.90;;;;;;5068569;28;20041;-88
2022/10/29 12:41:09;;;;;;;19.38;6.63;;;19.10;99.90;;;;;;5050652;28;20109;-87
2022/10/29 12:43:37;;;;;;;12.88;6.32;;;19.20;99.90;;;;;;5053313;28;20036;-87
2022/10/29 12:46:21;;;;;;;14.38;6.10;;;19.30;99.90;;;;;;5052725;28;20044;-86
2022/10/29 12:49:02;;;;;;;16.20;6.70;;;19.40;99.90;;;;;;5068337;28;20037;-86
2022/10/29 12:51:59;;;;;;;17.00;6.68;;;19.50;99.90;;;;;;5068479;28;20068;-87
2022/10/29 12:54:39;;;;;;;;;;;19.70;99.90;;;;;;5026484;28;20480;-86
2022/10/29 12:57:30;;;;;;;11.80;5.90;;;19.90;99.90;;;;;;5069729;28;19947;-87
2022/10/29 12:59:57;;;;;;;19.23;6.13;;;20.10;99.90;;;;;;5054154;28;20101;-88